Terminal Aerodrome Forecast
Issued by NWS

Home | Current Version | Previous Version | Text Only | Print | Product List | Glossary On
Versions: 1 2 3 4 5 6 7 8 9 10 11 12 13 14 15 16 17 18 19 20 21 22 23 24 25 26 27 28 29 30 31 32 33 34
000
FTUS45 KPIH 210200 CCA
TAFSUN
TAF COR
KSUN 210211Z 2102/2124 VRB06KT 2SM -SN BR SCT005 OVC018
     FM210400 VRB06KT 1SM -SN BR OVC008
     FM211500 31007KT 6SM -SHRASN BR SCT008 OVC015
     FM212000 15006KT 4SM -SHRA BR SCT004 BKN008
      AMD LTD TO CLD VIS AND WIND 2106/2114=

USA.gov is the U.S. government's official web portal to all federal, state and local government web resources and services.